Time;durP1;ratioP1;P1;durP2;ratioP2;P2;SDS_P1;SDS_P2;PMS_P1;PMS_P2;Temp;Humidity;BMP_temperature;BMP_pressure;BME280_temperature;BME280_humidity;BME280_pressure;Samples;Min_cycle;Max_cycle;Signal;HPM_P1;HPM_P2
2023/05/14 00:00:00;;;;;;;3.00;1.38;;;;;;;;;;5047062;28;20075;-66
2023/05/14 00:02:28;;;;;;;3.70;1.80;;;;;;;;;;5044436;28;20060;-62
2023/05/14 00:04:57;;;;;;;4.55;2.38;;;;;;;;;;5043084;28;20045;-62
2023/05/14 00:07:29;;;;;;;3.90;1.52;;;;;;;;;;5048145;28;20048;-62
2023/05/14 00:09:59;;;;;;;6.78;1.75;;;;;;;;;;5041086;28;20136;-62
2023/05/14 00:12:28;;;;;;;5.57;1.20;;;;;;;;;;5042801;28;20086;-65
2023/05/14 00:14:57;;;;;;;4.45;2.17;;;;;;;;;;5046384;28;20076;-62
2023/05/14 00:17:25;;;;;;;8.73;2.63;;;;;;;;;;5046756;28;20068;-62
2023/05/14 00:19:54;;;;;;;4.40;1.85;;;;;;;;;;5040390;28;20049;-62
2023/05/14 00:22:22;;;;;;;5.93;2.20;;;;;;;;;;5043512;28;20416;-62
2023/05/14 00:24:50;;;;;;;6.25;1.70;;;;;;;;;;5042263;28;20045;-70
2023/05/14 00:27:20;;;;;;;4.82;2.42;;;;;;;;;;5044418;28;20041;-64
2023/05/14 00:29:48;;;;;;;5.50;1.63;;;;;;;;;;5042463;28;20132;-64
2023/05/14 00:32:17;;;;;;;9.52;1.45;;;;;;;;;;5041805;28;20136;-63
2023/05/14 00:34:45;;;;;;;4.80;1.95;;;;;;;;;;5044294;28;20059;-64
2023/05/14 00:37:13;;;;;;;5.35;1.73;;;;;;;;;;5044428;28;20508;-69
2023/05/14 00:39:42;;;;;;;6.35;2.20;;;;;;;;;;5040371;28;20055;-61
2023/05/14 00:42:10;;;;;;;3.78;1.83;;;;;;;;;;5043626;28;20109;-63
2023/05/14 00:44:40;;;;;;;5.20;1.98;;;;;;;;;;5043734;28;20070;-65
2023/05/14 00:47:08;;;;;;;3.20;1.83;;;;;;;;;;5042403;28;20054;-69
2023/05/14 00:49:38;;;;;;;3.35;1.48;;;;;;;;;;5040882;28;20060;-61
2023/05/14 00:52:07;;;;;;;3.72;1.80;;;;;;;;;;5042450;28;20051;-62
2023/05/14 00:54:36;;;;;;;6.63;2.08;;;;;;;;;;5044724;28;20409;-64
2023/05/14 00:57:05;;;;;;;3.65;1.50;;;;;;;;;;5039279;28;20049;-64
2023/05/14 00:59:34;;;;;;;4.95;1.83;;;;;;;;;;5042360;28;20044;-69
2023/05/14 01:02:04;;;;;;;2.70;1.33;;;;;;;;;;5055816;22;20603;-64
2023/05/14 01:04:33;;;;;;;6.43;1.60;;;;;;;;;;5033137;28;20049;-60
2023/05/14 01:07:07;;;;;;;4.50;1.27;;;;;;;;;;5032718;28;20056;-61
2023/05/14 01:09:38;;;;;;;4.93;2.08;;;;;;;;;;5033017;28;20053;-64
2023/05/14 01:12:09;;;;;;;4.78;2.15;;;;;;;;;;5033101;28;20376;-62
2023/05/14 01:14:41;;;;;;;4.35;2.28;;;;;;;;;;5033157;28;20132;-60
2023/05/14 01:17:12;;;;;;;6.82;2.40;;;;;;;;;;5032750;28;20057;-62
2023/05/14 01:19:41;;;;;;;5.82;1.65;;;;;;;;;;5032968;28;20050;-61
2023/05/14 01:22:11;;;;;;;3.15;2.40;;;;;;;;;;5032922;28;20045;-61
2023/05/14 01:24:40;;;;;;;4.22;1.38;;;;;;;;;;5032962;28;20136;-64
2023/05/14 01:27:11;;;;;;;3.20;1.80;;;;;;;;;;5032658;28;20053;-61
2023/05/14 01:29:42;;;;;;;4.85;1.55;;;;;;;;;;5032183;28;20409;-62
2023/05/14 01:32:11;;;;;;;4.05;1.48;;;;;;;;;;5026168;28;20053;-62
2023/05/14 01:34:40;;;;;;;5.95;2.28;;;;;;;;;;5019749;28;20056;-61
2023/05/14 01:37:11;;;;;;;5.55;2.60;;;;;;;;;;5019659;28;20049;-61
2023/05/14 01:39:42;;;;;;;5.32;2.10;;;;;;;;;;5020059;28;20053;-61
2023/05/14 01:42:11;;;;;;;4.70;1.98;;;;;;;;;;5020232;28;20067;-61
2023/05/14 01:44:39;;;;;;;3.85;2.30;;;;;;;;;;5021994;28;20053;-60
2023/05/14 01:47:07;;;;;;;2.90;1.60;;;;;;;;;;5019238;28;20058;-60
2023/05/14 01:49:36;;;;;;;4.00;1.75;;;;;;;;;;5019869;28;20049;-61
2023/05/14 01:52:05;;;;;;;3.85;2.33;;;;;;;;;;5018296;28;20072;-61
2023/05/14 01:54:33;;;;;;;2.35;1.48;;;;;;;;;;5018851;28;20049;-64
2023/05/14 01:57:03;;;;;;;7.00;1.95;;;;;;;;;;5016920;28;20074;-65
2023/05/14 01:59:31;;;;;;;6.18;2.28;;;;;;;;;;5021823;28;20144;-61
2023/05/14 02:02:02;;;;;;;5.15;2.53;;;;;;;;;;5020200;28;20051;-61
2023/05/14 02:04:31;;;;;;;4.10;1.55;;;;;;;;;;5018935;28;20549;-61
2023/05/14 02:06:59;;;;;;;3.58;1.55;;;;;;;;;;5019808;28;20266;-61
2023/05/14 02:09:27;;;;;;;5.55;1.77;;;;;;;;;;5020448;28;20041;-62
2023/05/14 02:11:56;;;;;;;3.58;1.48;;;;;;;;;;5019344;28;20061;-60
2023/05/14 02:14:25;;;;;;;8.73;2.63;;;;;;;;;;5021977;28;20128;-61
2023/05/14 02:16:54;;;;;;;7.28;2.05;;;;;;;;;;5018733;28;20407;-64
2023/05/14 02:19:22;;;;;;;6.03;1.73;;;;;;;;;;5016501;28;20611;-62
2023/05/14 02:21:50;;;;;;;3.25;1.63;;;;;;;;;;5022933;28;20064;-63
2023/05/14 02:24:18;;;;;;;8.10;2.70;;;;;;;;;;5020427;28;20057;-60
2023/05/14 02:26:47;;;;;;;2.65;1.30;;;;;;;;;;5019484;28;20056;-64
2023/05/14 02:29:15;;;;;;;1.92;1.17;;;;;;;;;;5020661;28;20155;-63
2023/05/14 02:31:45;;;;;;;4.68;1.58;;;;;;;;;;5019777;28;20506;-64
2023/05/14 02:34:14;;;;;;;7.47;1.58;;;;;;;;;;5019947;28;20109;-60
2023/05/14 02:36:42;;;;;;;5.82;1.75;;;;;;;;;;5022470;28;20049;-61
2023/05/14 02:39:11;;;;;;;3.92;1.95;;;;;;;;;;5023981;28;20050;-61
2023/05/14 02:41:39;;;;;;;3.03;1.63;;;;;;;;;;5023745;28;20285;-60
2023/05/14 02:44:07;;;;;;;6.03;1.38;;;;;;;;;;5024461;28;20072;-60
2023/05/14 02:46:35;;;;;;;5.57;2.13;;;;;;;;;;5024481;28;20913;-61
2023/05/14 02:49:05;;;;;;;5.25;1.65;;;;;;;;;;5021217;28;20499;-60
2023/05/14 02:51:34;;;;;;;2.95;1.77;;;;;;;;;;5024886;28;20113;-61
2023/05/14 02:54:02;;;;;;;5.20;1.80;;;;;;;;;;5025531;28;20058;-61
2023/05/14 02:56:30;;;;;;;3.97;1.98;;;;;;;;;;5023353;28;20052;-62
2023/05/14 02:58:59;;;;;;;3.13;1.90;;;;;;;;;;5023108;28;20144;-60
2023/05/14 03:01:27;;;;;;;2.53;1.75;;;;;;;;;;5023299;28;20045;-60
2023/05/14 03:03:56;;;;;;;4.10;1.73;;;;;;;;;;5023237;28;20136;-60
2023/05/14 03:06:26;;;;;;;5.22;2.00;;;;;;;;;;5024879;28;20049;-60
2023/05/14 03:08:55;;;;;;;3.33;1.83;;;;;;;;;;5025766;28;20086;-61
2023/05/14 03:11:23;;;;;;;4.63;1.80;;;;;;;;;;5024650;28;20132;-60
2023/05/14 03:13:51;;;;;;;4.72;2.72;;;;;;;;;;5023254;28;20037;-63
2023/05/14 03:16:19;;;;;;;6.20;1.70;;;;;;;;;;5021992;28;20053;-60
2023/05/14 03:18:48;;;;;;;4.88;1.77;;;;;;;;;;5026160;28;20172;-60
2023/05/14 03:21:16;;;;;;;5.43;2.28;;;;;;;;;;5022968;28;20144;-60
2023/05/14 03:23:46;;;;;;;5.80;1.10;;;;;;;;;;5021404;28;20068;-61
2023/05/14 03:26:14;;;;;;;2.97;1.52;;;;;;;;;;5024727;28;20049;-60
2023/05/14 03:28:43;;;;;;;4.93;2.35;;;;;;;;;;5021406;28;21280;-64
2023/05/14 03:31:11;;;;;;;3.88;1.40;;;;;;;;;;5024861;28;20056;-64
2023/05/14 03:33:40;;;;;;;4.88;1.65;;;;;;;;;;5023656;28;20053;-62
2023/05/14 03:36:08;;;;;;;5.35;2.38;;;;;;;;;;5020397;28;20054;-60
2023/05/14 03:38:36;;;;;;;6.38;1.58;;;;;;;;;;5024606;28;20136;-60
2023/05/14 03:41:06;;;;;;;5.15;2.17;;;;;;;;;;5021151;28;20510;-61
2023/05/14 03:43:35;;;;;;;2.65;1.30;;;;;;;;;;5025524;28;20050;-60
2023/05/14 03:46:03;;;;;;;4.93;1.80;;;;;;;;;;5023616;28;20044;-60
2023/05/14 03:48:31;;;;;;;3.67;1.58;;;;;;;;;;5021869;28;20051;-64
2023/05/14 03:51:00;;;;;;;3.30;1.92;;;;;;;;;;5020059;28;20045;-62
2023/05/14 03:53:28;;;;;;;8.82;1.40;;;;;;;;;;5021832;28;20049;-61
2023/05/14 03:55:56;;;;;;;2.92;1.88;;;;;;;;;;5019327;28;20286;-60
2023/05/14 03:58:26;;;;;;;3.40;1.45;;;;;;;;;;5021034;28;20220;-61
2023/05/14 04:00:55;;;;;;;4.38;1.90;;;;;;;;;;5021325;28;20136;-60
2023/05/14 04:03:23;;;;;;;11.35;3.17;;;;;;;;;;5021026;28;20144;-62
2023/05/14 04:05:52;;;;;;;3.42;2.00;;;;;;;;;;5021456;28;20564;-61
2023/05/14 04:08:20;;;;;;;5.18;1.60;;;;;;;;;;5023214;28;20604;-60
2023/05/14 04:10:48;;;;;;;4.60;2.40;;;;;;;;;;5019121;28;20057;-61
2023/05/14 04:13:17;;;;;;;2.40;1.48;;;;;;;;;;5021018;28;20053;-60
2023/05/14 04:15:46;;;;;;;7.45;3.10;;;;;;;;;;5021868;28;20042;-65
2023/05/14 04:18:16;;;;;;;5.65;2.60;;;;;;;;;;5023674;28;20140;-60
2023/05/14 04:20:44;;;;;;;6.38;2.30;;;;;;;;;;5018740;28;20056;-60
2023/05/14 04:23:12;;;;;;;8.77;2.92;;;;;;;;;;5020460;28;20037;-63
2023/05/14 04:25:41;;;;;;;4.65;1.70;;;;;;;;;;5020636;28;20179;-61
2023/05/14 04:28:09;;;;;;;5.32;2.28;;;;;;;;;;5024839;28;20132;-61
2023/05/14 04:30:37;;;;;;;6.63;2.33;;;;;;;;;;5021014;28;20418;-60
2023/05/14 04:33:07;;;;;;;5.93;2.60;;;;;;;;;;5019490;28;20069;-62
2023/05/14 04:35:35;;;;;;;3.60;2.35;;;;;;;;;;5019807;28;20046;-62
2023/05/14 04:38:04;;;;;;;5.65;2.65;;;;;;;;;;5018595;28;20069;-60
2023/05/14 04:40:33;;;;;;;5.60;2.35;;;;;;;;;;5023719;28;20502;-62
2023/05/14 04:43:01;;;;;;;7.28;2.78;;;;;;;;;;5021378;28;20759;-60
2023/05/14 04:45:30;;;;;;;9.13;2.60;;;;;;;;;;5020898;28;20493;-62
2023/05/14 04:48:01;;;;;;;4.25;2.25;;;;;;;;;;5023015;28;20045;-61
2023/05/14 04:50:31;;;;;;;10.48;2.50;;;;;;;;;;5019268;28;20136;-59
2023/05/14 04:52:59;;;;;;;10.45;3.22;;;;;;;;;;5022468;28;20049;-61
2023/05/14 04:55:28;;;;;;;4.30;1.85;;;;;;;;;;5021855;28;20144;-61
2023/05/14 04:57:56;;;;;;;8.00;3.30;;;;;;;;;;5019927;28;20057;-60
2023/05/14 05:00:24;;;;;;;3.47;1.63;;;;;;;;;;5022783;28;20380;-62
2023/05/14 05:02:53;;;;;;;7.20;2.13;;;;;;;;;;5020232;28;20056;-61
2023/05/14 05:05:22;;;;;;;4.82;2.15;;;;;;;;;;5019537;28;20049;-61
2023/05/14 05:07:52;;;;;;;5.88;2.00;;;;;;;;;;5021462;28;20068;-60
2023/05/14 05:10:21;;;;;;;7.07;2.85;;;;;;;;;;5021235;28;20053;-61
2023/05/14 05:12:50;;;;;;;5.25;2.55;;;;;;;;;;5022271;28;20081;-61
2023/05/14 05:15:18;;;;;;;4.05;1.48;;;;;;;;;;5020353;28;20140;-63
2023/05/14 05:17:47;;;;;;;8.80;3.25;;;;;;;;;;5022052;28;20053;-61
2023/05/14 05:20:15;;;;;;;9.40;2.25;;;;;;;;;;5020088;28;20065;-60
2023/05/14 05:22:43;;;;;;;4.57;1.77;;;;;;;;;;5022589;28;20442;-60
2023/05/14 05:25:13;;;;;;;8.75;2.70;;;;;;;;;;5022551;28;20501;-63
2023/05/14 05:27:41;;;;;;;3.97;2.47;;;;;;;;;;5021750;28;20037;-62
2023/05/14 05:30:10;;;;;;;3.00;1.60;;;;;;;;;;5019508;28;20056;-60
2023/05/14 05:32:39;;;;;;;3.53;1.35;;;;;;;;;;5020285;28;20111;-62
2023/05/14 05:35:07;;;;;;;2.33;1.63;;;;;;;;;;5021412;28;20041;-61
2023/05/14 05:37:36;;;;;;;5.00;1.52;;;;;;;;;;5019809;28;20048;-61
2023/05/14 05:40:05;;;;;;;5.97;2.58;;;;;;;;;;5023684;28;20087;-61
2023/05/14 05:42:35;;;;;;;4.93;2.70;;;;;;;;;;5019857;28;20507;-60
2023/05/14 05:45:03;;;;;;;4.75;1.70;;;;;;;;;;5019942;28;20125;-60
2023/05/14 05:47:32;;;;;;;8.77;3.20;;;;;;;;;;5021330;28;20124;-63
2023/05/14 05:50:00;;;;;;;7.68;2.75;;;;;;;;;;5021041;28;20076;-61
2023/05/14 05:52:28;;;;;;;4.15;2.15;;;;;;;;;;5020448;28;20045;-62
2023/05/14 05:54:57;;;;;;;6.63;2.83;;;;;;;;;;5020251;28;20049;-60
2023/05/14 05:57:26;;;;;;;8.90;1.80;;;;;;;;;;5020222;28;20133;-61
2023/05/14 05:59:55;;;;;;;4.13;1.67;;;;;;;;;;5020144;28;20053;-60
2023/05/14 06:02:24;;;;;;;5.30;2.30;;;;;;;;;;5019021;28;20061;-63
2023/05/14 06:04:52;;;;;;;8.40;2.55;;;;;;;;;;5020485;28;20053;-60
2023/05/14 06:07:21;;;;;;;9.45;3.03;;;;;;;;;;5019675;28;20045;-60
2023/05/14 06:09:49;;;;;;;5.63;2.33;;;;;;;;;;5018549;28;20062;-61
2023/05/14 06:12:18;;;;;;;4.22;1.48;;;;;;;;;;5022111;28;20060;-65
2023/05/14 06:14:46;;;;;;;5.07;2.10;;;;;;;;;;5026328;28;20053;-62
2023/05/14 06:17:16;;;;;;;13.40;4.15;;;;;;;;;;5021529;28;20119;-61
2023/05/14 06:19:47;;;;;;;6.35;1.95;;;;;;;;;;5024306;28;20077;-60
2023/05/14 06:22:16;;;;;;;4.90;2.42;;;;;;;;;;5023657;28;20493;-63
2023/05/14 06:24:44;;;;;;;3.33;2.13;;;;;;;;;;5024792;28;20037;-61
2023/05/14 06:27:12;;;;;;;16.05;3.25;;;;;;;;;;5022562;28;20055;-62
2023/05/14 06:29:41;;;;;;;3.92;2.15;;;;;;;;;;5025612;28;20107;-61
2023/05/14 06:32:09;;;;;;;6.85;2.60;;;;;;;;;;5024896;28;20053;-63
2023/05/14 06:34:39;;;;;;;5.70;2.42;;;;;;;;;;5026812;28;20128;-61
2023/05/14 06:37:08;;;;;;;8.02;2.58;;;;;;;;;;5021598;28;20056;-59
2023/05/14 06:39:36;;;;;;;7.53;1.60;;;;;;;;;;5025608;28;20059;-60
2023/05/14 06:42:05;;;;;;;4.72;1.83;;;;;;;;;;5026777;28;20485;-60
2023/05/14 06:44:33;;;;;;;4.10;2.10;;;;;;;;;;5023214;28;20461;-63
2023/05/14 06:47:02;;;;;;;3.00;1.85;;;;;;;;;;5024320;28;20049;-61
2023/05/14 06:49:30;;;;;;;5.72;1.80;;;;;;;;;;5026725;28;20038;-63
2023/05/14 06:52:00;;;;;;;5.43;1.75;;;;;;;;;;5021724;28;20053;-61
2023/05/14 06:54:28;;;;;;;4.80;1.70;;;;;;;;;;5026480;28;20052;-60
2023/05/14 06:56:57;;;;;;;7.47;2.65;;;;;;;;;;5022483;28;20584;-63
2023/05/14 06:59:25;;;;;;;4.82;2.20;;;;;;;;;;5021550;28;20383;-64
2023/05/14 07:01:54;;;;;;;4.75;1.77;;;;;;;;;;5023769;28;20128;-63
2023/05/14 07:04:22;;;;;;;7.22;2.60;;;;;;;;;;5023383;28;20072;-61
2023/05/14 07:06:51;;;;;;;6.00;2.03;;;;;;;;;;5023736;28;20045;-60
2023/05/14 07:09:20;;;;;;;5.53;2.45;;;;;;;;;;5020533;28;20045;-60
2023/05/14 07:11:49;;;;;;;8.20;2.90;;;;;;;;;;5025067;28;20120;-61
2023/05/14 07:14:17;;;;;;;8.45;2.78;;;;;;;;;;5023978;28;20410;-60
2023/05/14 07:16:45;;;;;;;10.07;2.70;;;;;;;;;;5019835;28;20055;-60
2023/05/14 07:19:14;;;;;;;3.47;2.10;;;;;;;;;;5021175;28;20136;-62
2023/05/14 07:21:42;;;;;;;7.82;2.53;;;;;;;;;;5022564;28;20056;-61
2023/05/14 07:24:11;;;;;;;4.93;1.98;;;;;;;;;;5021238;28;20412;-64
2023/05/14 07:26:41;;;;;;;9.50;2.75;;;;;;;;;;5021966;28;20302;-61
2023/05/14 07:29:09;;;;;;;5.75;2.25;;;;;;;;;;5022897;28;20056;-60
2023/05/14 07:31:37;;;;;;;7.97;2.47;;;;;;;;;;5023660;28;20068;-60
2023/05/14 07:34:07;;;;;;;6.63;2.72;;;;;;;;;;5022972;28;20104;-60
2023/05/14 07:36:35;;;;;;;5.43;2.10;;;;;;;;;;5023666;28;20493;-60
2023/05/14 07:39:04;;;;;;;5.05;2.17;;;;;;;;;;5023195;28;20399;-60
2023/05/14 07:41:32;;;;;;;4.78;2.55;;;;;;;;;;5025689;28;20053;-60
2023/05/14 07:44:02;;;;;;;6.50;2.03;;;;;;;;;;5022921;28;20045;-60
2023/05/14 07:46:30;;;;;;;9.18;2.47;;;;;;;;;;5022325;28;20414;-60
2023/05/14 07:48:59;;;;;;;7.15;2.30;;;;;;;;;;5023823;28;20505;-64
2023/05/14 07:51:28;;;;;;;6.93;2.75;;;;;;;;;;5020398;28;20053;-61
2023/05/14 07:53:56;;;;;;;6.45;2.30;;;;;;;;;;5021939;28;20490;-62
2023/05/14 07:56:25;;;;;;;6.75;1.63;;;;;;;;;;5021634;28;20042;-62
2023/05/14 07:58:53;;;;;;;3.38;2.03;;;;;;;;;;5022353;28;20579;-62
2023/05/14 08:01:23;;;;;;;7.80;2.13;;;;;;;;;;5023921;28;20046;-62
2023/05/14 08:03:51;;;;;;;6.20;2.40;;;;;;;;;;5023916;28;20072;-62
2023/05/14 08:06:21;;;;;;;3.97;2.33;;;;;;;;;;5022886;28;20099;-62
2023/05/14 08:08:50;;;;;;;2.85;1.77;;;;;;;;;;5019801;28;20556;-63
2023/05/14 08:11:21;;;;;;;9.57;1.65;;;;;;;;;;5022133;28;20063;-62
2023/05/14 08:13:49;;;;;;;4.75;3.08;;;;;;;;;;5024992;28;20512;-63
2023/05/14 08:16:18;;;;;;;6.43;2.35;;;;;;;;;;5021979;28;20055;-59
2023/05/14 08:18:47;;;;;;;9.80;2.25;;;;;;;;;;5019591;28;20045;-62
2023/05/14 08:21:16;;;;;;;7.30;2.83;;;;;;;;;;5022894;28;20133;-62
2023/05/14 08:23:44;;;;;;;6.97;3.10;;;;;;;;;;5021866;28;20079;-61
2023/05/14 08:26:13;;;;;;;6.25;1.65;;;;;;;;;;5023439;28;20057;-60
2023/05/14 08:28:41;;;;;;;6.82;2.58;;;;;;;;;;5022367;28;20069;-60
2023/05/14 08:31:10;;;;;;;4.65;1.92;;;;;;;;;;5021508;28;20417;-64
2023/05/14 08:33:38;;;;;;;5.22;2.20;;;;;;;;;;5019682;28;20057;-65
2023/05/14 08:36:08;;;;;;;5.32;2.35;;;;;;;;;;5022247;28;20065;-64
2023/05/14 08:38:37;;;;;;;2.70;1.60;;;;;;;;;;5021490;28;20533;-61
2023/05/14 08:41:06;;;;;;;6.82;2.70;;;;;;;;;;5020593;28;20565;-61
2023/05/14 08:43:42;;;;;;;5.55;2.00;;;;;;;;;;5022140;28;20128;-62
2023/05/14 08:46:12;;;;;;;7.05;2.00;;;;;;;;;;5020000;28;20045;-61
2023/05/14 08:48:41;;;;;;;2.35;2.10;;;;;;;;;;5021436;28;20050;-61
2023/05/14 08:51:11;;;;;;;6.63;2.00;;;;;;;;;;5021464;28;20047;-64
2023/05/14 08:53:40;;;;;;;4.45;1.98;;;;;;;;;;5021290;28;20056;-62
2023/05/14 08:56:09;;;;;;;6.30;1.95;;;;;;;;;;5019830;28;20140;-61
2023/05/14 08:58:37;;;;;;;2.47;1.98;;;;;;;;;;5019613;28;20325;-61
2023/05/14 09:01:06;;;;;;;7.38;1.60;;;;;;;;;;5020007;28;20124;-61
2023/05/14 09:03:35;;;;;;;3.10;1.25;;;;;;;;;;5020636;28;20502;-64
2023/05/14 09:06:04;;;;;;;4.38;2.45;;;;;;;;;;5015000;28;20389;-60
2023/05/14 09:08:35;;;;;;;3.30;2.00;;;;;;;;;;5020615;28;20049;-61
2023/05/14 09:11:03;;;;;;;3.08;2.05;;;;;;;;;;5021854;28;20127;-61
2023/05/14 09:13:32;;;;;;;5.90;2.00;;;;;;;;;;5021415;28;20056;-60
2023/05/14 09:16:00;;;;;;;3.10;1.10;;;;;;;;;;5021117;28;20061;-64
2023/05/14 09:18:29;;;;;;;4.07;1.75;;;;;;;;;;5022635;28;20064;-60
2023/05/14 09:20:58;;;;;;;6.90;2.17;;;;;;;;;;5020628;28;20474;-61
2023/05/14 09:23:26;;;;;;;4.22;1.85;;;;;;;;;;5021402;28;20417;-61
2023/05/14 09:25:56;;;;;;;2.65;1.83;;;;;;;;;;5017928;28;20057;-61
2023/05/14 09:28:26;;;;;;;4.25;1.80;;;;;;;;;;5021951;28;20563;-60
2023/05/14 09:30:55;;;;;;;5.10;2.05;;;;;;;;;;5022129;28;20053;-60
2023/05/14 09:33:27;;;;;;;4.10;1.83;;;;;;;;;;5019634;28;20140;-60
2023/05/14 09:35:58;;;;;;;7.45;2.60;;;;;;;;;;5019164;28;20111;-60
2023/05/14 09:38:30;;;;;;;5.35;1.85;;;;;;;;;;5024488;28;20124;-60
2023/05/14 09:41:00;;;;;;;3.78;2.08;;;;;;;;;;5022026;28;20052;-61
2023/05/14 09:43:29;;;;;;;3.00;1.90;;;;;;;;;;5022739;28;20414;-61
2023/05/14 09:45:57;;;;;;;5.90;1.60;;;;;;;;;;5021088;28;20137;-61
2023/05/14 09:48:26;;;;;;;3.35;1.50;;;;;;;;;;5021898;28;20705;-64
2023/05/14 09:50:54;;;;;;;5.95;2.42;;;;;;;;;;5022598;28;20053;-62
2023/05/14 09:53:23;;;;;;;3.63;2.00;;;;;;;;;;5019844;28;20045;-61
2023/05/14 09:55:51;;;;;;;6.18;2.00;;;;;;;;;;5019752;28;20054;-61
2023/05/14 09:58:21;;;;;;;3.83;2.15;;;;;;;;;;5013771;28;20433;-63
2023/05/14 10:00:49;;;;;;;3.72;1.92;;;;;;;;;;5020251;28;20092;-62
2023/05/14 10:03:19;;;;;;;4.78;2.33;;;;;;;;;;5021346;28;20065;-60
2023/05/14 10:05:50;;;;;;;5.53;1.65;;;;;;;;;;5021068;28;20054;-63
2023/05/14 10:08:21;;;;;;;4.32;2.00;;;;;;;;;;5021988;28;20118;-63
2023/05/14 10:10:50;;;;;;;5.68;1.90;;;;;;;;;;5019805;28;20057;-67
2023/05/14 10:13:21;;;;;;;4.75;1.02;;;;;;;;;;5019259;28;20466;-61
2023/05/14 10:16:00;;;;;;;2.60;1.67;;;;;;;;;;5017428;28;20101;-61
2023/05/14 10:18:31;;;;;;;2.20;1.38;;;;;;;;;;5020395;28;20136;-60
2023/05/14 10:21:04;;;;;;;2.22;1.17;;;;;;;;;;5021180;28;20061;-61
2023/05/14 10:23:33;;;;;;;2.85;1.27;;;;;;;;;;5020627;28;20058;-62
2023/05/14 10:26:02;;;;;;;2.88;1.38;;;;;;;;;;5019342;28;20065;-61
2023/05/14 10:28:32;;;;;;;2.90;1.25;;;;;;;;;;5020229;28;20052;-62
2023/05/14 10:31:01;;;;;;;1.77;1.17;;;;;;;;;;5021502;28;20151;-62
2023/05/14 10:33:29;;;;;;;2.53;1.00;;;;;;;;;;5021531;28;20576;-62
2023/05/14 10:36:00;;;;;;;2.58;1.10;;;;;;;;;;5019371;28;20501;-62
2023/05/14 10:38:29;;;;;;;4.15;1.35;;;;;;;;;;5020932;28;20474;-61
2023/05/14 10:40:59;;;;;;;3.38;1.40;;;;;;;;;;5018868;28;20517;-62
2023/05/14 10:43:29;;;;;;;5.40;1.52;;;;;;;;;;5020239;28;20061;-64
2023/05/14 10:46:01;;;;;;;3.17;1.55;;;;;;;;;;5021145;28;21406;-62
2023/05/14 10:48:30;;;;;;;5.15;2.03;;;;;;;;;;5019694;28;20050;-62
2023/05/14 10:50:58;;;;;;;1.27;0.60;;;;;;;;;;5020325;28;20406;-62
2023/05/14 10:53:33;;;;;;;2.83;1.25;;;;;;;;;;5019846;28;20041;-63
2023/05/14 10:56:05;;;;;;;3.38;1.25;;;;;;;;;;5018960;28;20045;-64
2023/05/14 10:58:36;;;;;;;5.55;1.45;;;;;;;;;;5021772;28;20051;-63
2023/05/14 11:01:06;;;;;;;3.38;1.45;;;;;;;;;;5025106;28;20045;-61
2023/05/14 11:03:39;;;;;;;2.70;1.70;;;;;;;;;;5025396;28;20525;-62
2023/05/14 11:06:08;;;;;;;3.63;1.88;;;;;;;;;;5024847;28;20045;-61
2023/05/14 11:08:37;;;;;;;1.77;0.90;;;;;;;;;;5022256;28;20064;-63
2023/05/14 11:11:06;;;;;;;3.60;1.10;;;;;;;;;;5023210;28;20047;-63
2023/05/14 11:13:34;;;;;;;3.10;1.33;;;;;;;;;;5024351;28;20141;-62
2023/05/14 11:16:03;;;;;;;4.95;1.85;;;;;;;;;;5024707;28;20560;-64
2023/05/14 11:18:53;;;;;;;3.55;1.80;;;;;;;;;;5020655;28;20128;-64
2023/05/14 11:21:22;;;;;;;1.98;1.20;;;;;;;;;;5021804;28;20490;-65
2023/05/14 11:23:50;;;;;;;4.15;1.85;;;;;;;;;;5023401;28;20049;-66
2023/05/14 11:26:19;;;;;;;2.10;1.17;;;;;;;;;;5023145;28;20136;-62
2023/05/14 11:28:49;;;;;;;6.38;1.30;;;;;;;;;;5023813;28;20050;-62
2023/05/14 11:31:17;;;;;;;2.83;1.33;;;;;;;;;;5023282;28;20124;-63
2023/05/14 11:33:46;;;;;;;2.22;1.42;;;;;;;;;;5023636;28;20042;-62
2023/05/14 11:36:16;;;;;;;3.00;1.98;;;;;;;;;;5023545;28;20046;-64
2023/05/14 11:38:50;;;;;;;1.60;0.85;;;;;;;;;;5024027;28;20471;-61
2023/05/14 11:41:20;;;;;;;2.50;1.25;;;;;;;;;;5022956;28;20487;-61
2023/05/14 11:43:49;;;;;;;4.32;2.40;;;;;;;;;;5023067;28;20053;-62
2023/05/14 11:46:18;;;;;;;4.25;1.17;;;;;;;;;;5024635;28;20052;-62
2023/05/14 11:48:46;;;;;;;2.55;1.40;;;;;;;;;;5025455;28;20060;-61
2023/05/14 11:51:16;;;;;;;1.85;1.40;;;;;;;;;;5022574;28;20493;-62
2023/05/14 11:53:46;;;;;;;1.48;0.82;;;;;;;;;;5024682;28;20053;-62
2023/05/14 11:56:15;;;;;;;2.67;1.25;;;;;;;;;;5021483;28;20050;-63
2023/05/14 11:58:48;;;;;;;1.35;1.15;;;;;;;;;;5022596;28;20077;-61
2023/05/14 12:01:16;;;;;;;3.20;2.05;;;;;;;;;;5024155;28;20091;-64
2023/05/14 12:03:45;;;;;;;7.78;1.90;;;;;;;;;;5019689;28;20115;-65
2023/05/14 12:06:13;;;;;;;2.45;1.38;;;;;;;;;;5023302;28;20053;-62
2023/05/14 12:08:43;;;;;;;3.38;1.27;;;;;;;;;;5022264;28;20057;-62
2023/05/14 12:11:11;;;;;;;2.95;2.03;;;;;;;;;;5021734;28;20047;-62
2023/05/14 12:13:40;;;;;;;2.47;1.30;;;;;;;;;;5022035;28;20053;-63
2023/05/14 12:16:08;;;;;;;3.15;1.60;;;;;;;;;;5022791;28;20461;-62
2023/05/14 12:18:37;;;;;;;1.98;1.23;;;;;;;;;;5024377;28;20091;-62
2023/05/14 12:21:07;;;;;;;3.80;1.20;;;;;;;;;;5021517;28;20513;-62
2023/05/14 12:23:36;;;;;;;2.40;1.85;;;;;;;;;;5020593;28;20045;-63
2023/05/14 12:26:06;;;;;;;2.13;1.38;;;;;;;;;;5021357;28;20045;-61
2023/05/14 12:28:35;;;;;;;2.65;0.85;;;;;;;;;;5023530;28;20047;-65
2023/05/14 12:31:06;;;;;;;1.67;1.15;;;;;;;;;;5024458;28;20050;-62
2023/05/14 12:33:34;;;;;;;3.33;1.60;;;;;;;;;;5023645;28;20753;-62
2023/05/14 12:36:02;;;;;;;2.55;1.23;;;;;;;;;;5022362;28;20052;-65
2023/05/14 12:38:49;;;;;;;3.45;1.65;;;;;;;;;;5024251;28;20893;-62
2023/05/14 12:41:18;;;;;;;2.20;1.10;;;;;;;;;;5022524;28;20706;-62
2023/05/14 12:43:49;;;;;;;2.58;1.35;;;;;;;;;;5023758;28;20067;-62
2023/05/14 12:46:17;;;;;;;3.75;1.90;;;;;;;;;;5020031;28;20050;-62
2023/05/14 12:48:46;;;;;;;3.58;1.63;;;;;;;;;;5023956;28;20041;-62
2023/05/14 12:51:14;;;;;;;4.53;1.67;;;;;;;;;;5022139;28;20525;-62
2023/05/14 12:53:42;;;;;;;2.70;1.50;;;;;;;;;;5020609;28;20564;-62
2023/05/14 12:56:11;;;;;;;3.90;1.27;;;;;;;;;;5022237;28;20046;-62
2023/05/14 12:58:41;;;;;;;6.63;2.58;;;;;;;;;;5023081;28;20128;-64
2023/05/14 13:01:09;;;;;;;1.50;1.05;;;;;;;;;;5023070;28;20414;-63
2023/05/14 13:03:37;;;;;;;2.85;1.58;;;;;;;;;;5021108;28;20053;-62
2023/05/14 13:06:06;;;;;;;3.35;1.30;;;;;;;;;;5023079;28;20497;-65
2023/05/14 13:08:35;;;;;;;3.05;1.60;;;;;;;;;;4993527;28;20151;-63
2023/05/14 13:11:04;;;;;;;6.05;2.22;;;;;;;;;;5019018;28;20506;-62
2023/05/14 13:13:32;;;;;;;3.65;1.33;;;;;;;;;;5021260;28;20052;-63
2023/05/14 13:16:02;;;;;;;2.08;1.33;;;;;;;;;;5019683;28;20750;-63
2023/05/14 13:18:31;;;;;;;4.55;1.02;;;;;;;;;;5021835;28;20123;-63
2023/05/14 13:20:59;;;;;;;2.10;1.60;;;;;;;;;;5021834;28;20053;-62
2023/05/14 13:23:28;;;;;;;4.00;1.55;;;;;;;;;;5024979;28;20054;-62
2023/05/14 13:25:56;;;;;;;3.17;1.20;;;;;;;;;;5019805;28;20150;-62
2023/05/14 13:28:25;;;;;;;1.63;1.15;;;;;;;;;;5021632;28;20083;-62
2023/05/14 13:31:08;;;;;;;4.80;1.83;;;;;;;;;;5021764;28;20056;-63
2023/05/14 13:33:37;;;;;;;4.25;2.90;;;;;;;;;;5021604;28;20042;-62
2023/05/14 13:36:06;;;;;;;3.90;2.08;;;;;;;;;;5022109;28;20073;-65
2023/05/14 13:38:34;;;;;;;4.57;1.30;;;;;;;;;;5020842;28;20148;-62
2023/05/14 13:41:02;;;;;;;2.10;1.20;;;;;;;;;;5020776;28;20041;-62
2023/05/14 13:43:31;;;;;;;2.28;1.38;;;;;;;;;;5022438;28;20052;-62
2023/05/14 13:45:59;;;;;;;3.15;1.40;;;;;;;;;;5020436;28;20061;-64
2023/05/14 13:48:30;;;;;;;2.13;1.42;;;;;;;;;;5021512;28;20132;-63
2023/05/14 13:50:59;;;;;;;2.05;0.98;;;;;;;;;;5020749;28;20255;-63
2023/05/14 13:53:27;;;;;;;1.10;1.00;;;;;;;;;;5021454;28;20045;-62
2023/05/14 13:55:57;;;;;;;2.08;0.77;;;;;;;;;;5020686;28;20052;-62
2023/05/14 13:58:25;;;;;;;1.52;1.02;;;;;;;;;;5021724;28;20046;-63
2023/05/14 14:00:54;;;;;;;1.17;1.00;;;;;;;;;;5019576;28;20144;-63
2023/05/14 14:03:23;;;;;;;3.35;1.40;;;;;;;;;;5021047;28;20474;-63
2023/05/14 14:05:53;;;;;;;2.10;0.95;;;;;;;;;;5021027;28;20052;-63
2023/05/14 14:08:21;;;;;;;2.95;1.60;;;;;;;;;;5021532;28;20095;-63
2023/05/14 14:10:53;;;;;;;2.65;1.15;;;;;;;;;;5020925;28;20045;-63
2023/05/14 14:13:23;;;;;;;1.17;0.90;;;;;;;;;;5019791;28;20037;-63
2023/05/14 14:15:51;;;;;;;1.88;1.45;;;;;;;;;;5016315;28;20064;-63
2023/05/14 14:18:20;;;;;;;0.90;0.63;;;;;;;;;;5020998;28;20162;-64
2023/05/14 14:20:48;;;;;;;1.42;0.90;;;;;;;;;;5022053;28;20050;-64
2023/05/14 14:23:18;;;;;;;1.85;0.75;;;;;;;;;;5021197;28;20061;-64
2023/05/14 14:25:46;;;;;;;2.35;0.90;;;;;;;;;;5018527;28;20148;-63
2023/05/14 14:28:15;;;;;;;2.55;1.20;;;;;;;;;;5017403;28;20056;-62
2023/05/14 14:30:43;;;;;;;3.55;1.17;;;;;;;;;;5022271;28;20582;-63
2023/05/14 14:33:12;;;;;;;3.38;1.02;;;;;;;;;;5023757;28;20053;-63
2023/05/14 14:35:40;;;;;;;1.80;0.90;;;;;;;;;;5023664;28;20128;-63
2023/05/14 14:38:09;;;;;;;1.52;1.02;;;;;;;;;;5023303;28;20041;-63
2023/05/14 14:40:39;;;;;;;0.80;0.80;;;;;;;;;;5020497;28;20059;-62
2023/05/14 14:43:07;;;;;;;2.53;1.75;;;;;;;;;;5025375;28;20065;-63
2023/05/14 14:45:35;;;;;;;1.00;0.70;;;;;;;;;;5023771;28;20054;-63
2023/05/14 14:48:32;;;;;;;1.52;1.00;;;;;;;;;;5023910;28;20049;-64
2023/05/14 14:51:01;;;;;;;1.40;0.98;;;;;;;;;;4990256;28;20132;-65
2023/05/14 14:53:29;;;;;;;0.95;0.68;;;;;;;;;;5023595;28;20045;-63